Time;durP1;ratioP1;P1;durP2;ratioP2;P2;SDS_P1;SDS_P2;PMS_P1;PMS_P2;Temp;Humidity;BMP_temperature;BMP_pressure;BME280_temperature;BME280_humidity;BME280_pressure;Samples;Min_cycle;Max_cycle;Signal;HPM_P1;HPM_P2
2023/12/24 00:00:00;;;;;;;5.87;1.00;;;;;;;-145.18;100.00;46699.47;5050422;28;20024;-86
2023/12/24 00:02:25;;;;;;;10.17;1.37;;;;;;;-145.18;100.00;46691.66;5051499;28;20028;-86
2023/12/24 00:04:50;;;;;;;6.40;1.13;;;;;;;-145.18;100.00;46693.59;5048972;28;20104;-86
2023/12/24 00:07:16;;;;;;;3.47;1.30;;;;;;;-145.18;100.00;46691.66;5051509;28;20549;-83
2023/12/24 00:09:42;;;;;;;4.40;0.90;;;;;;;-145.18;100.00;46699.47;5049116;28;20120;-83
2023/12/24 00:12:07;;;;;;;2.37;0.97;;;;;;;-145.18;100.00;46699.47;5050510;28;20120;-83
2023/12/24 00:14:33;;;;;;;9.43;1.10;;;;;;;-145.18;100.00;46691.66;5048150;28;20040;-83
2023/12/24 00:16:58;;;;;;;6.73;1.00;;;;;;;-145.18;100.00;46699.47;5050463;28;20398;-80
2023/12/24 00:19:24;;;;;;;6.63;1.00;;;;;;;-145.18;100.00;46701.41;5048054;28;20124;-80
2023/12/24 00:21:50;;;;;;;5.50;1.37;;;;;;;-145.18;100.00;46699.47;5052547;28;20037;-80
2023/12/24 00:24:16;;;;;;;2.87;0.90;;;;;;;-145.18;100.00;46703.38;5053033;28;20096;-80
2023/12/24 00:26:41;;;;;;;7.47;0.87;;;;;;;-145.18;100.00;46699.47;5053348;28;20048;-82
2023/12/24 00:29:07;;;;;;;3.97;0.87;;;;;;;-145.18;100.00;46699.47;5052331;28;20051;-82
2023/12/24 00:31:32;;;;;;;5.87;1.13;;;;;;;-145.18;100.00;46703.38;5052615;28;20029;-82
2023/12/24 00:33:58;;;;;;;5.27;0.97;;;;;;;-145.18;100.00;46701.41;5052433;28;20561;-82
2023/12/24 00:36:23;;;;;;;4.90;1.10;;;;;;;-145.18;100.00;46703.38;5052494;28;20044;-82
2023/12/24 00:38:49;;;;;;;4.63;1.60;;;;;;;-145.18;100.00;46703.38;5052413;28;20060;-82
2023/12/24 00:41:16;;;;;;;9.30;1.50;;;;;;;-145.18;100.00;46701.41;5052668;28;20047;-82
2023/12/24 00:43:42;;;;;;;4.53;1.10;;;;;;;-145.18;100.00;46689.69;5052028;28;20025;-82
2023/12/24 00:46:07;;;;;;;3.30;1.07;;;;;;;-145.18;100.00;46693.59;5051628;28;20026;-82
2023/12/24 00:48:33;;;;;;;7.80;1.40;;;;;;;-145.18;100.00;46699.47;5051927;28;20033;-82
2023/12/24 00:50:58;;;;;;;5.20;2.03;;;;;;;-145.18;100.00;46701.41;5051547;28;20040;-82
2023/12/24 00:53:23;;;;;;;13.53;1.30;;;;;;;-145.18;100.00;46701.41;5052441;28;20350;-82
2023/12/24 00:55:49;;;;;;;9.00;1.83;;;;;;;-145.18;100.00;46695.56;5052663;28;20064;-82
2023/12/24 00:58:15;;;;;;;7.10;1.67;;;;;;;-145.18;100.00;46701.41;5050610;28;20120;-82
2023/12/24 01:00:41;;;;;;;10.40;1.60;;;;;;;-145.18;100.00;46703.38;5050467;28;20393;-82
2023/12/24 01:03:06;;;;;;;8.10;1.50;;;;;;;-145.18;100.00;46693.59;5051892;28;20116;-82
2023/12/24 01:05:31;;;;;;;8.50;1.53;;;;;;;-145.18;100.00;46703.38;5051834;28;20056;-82
2023/12/24 01:07:57;;;;;;;10.00;1.90;;;;;;;-145.18;100.00;46703.38;5051187;28;20425;-82
2023/12/24 01:10:22;;;;;;;10.80;2.33;;;;;;;-145.18;100.00;46701.41;5051615;28;20037;-82
2023/12/24 01:12:48;;;;;;;3.37;1.50;;;;;;;-145.18;100.00;46691.66;5050038;28;20025;-82
2023/12/24 01:15:13;;;;;;;7.53;1.70;;;;;;;-145.18;100.00;46699.47;5040235;28;20788;-83
2023/12/24 01:17:38;;;;;;;7.63;1.70;;;;;;;-145.18;100.00;46691.66;5051349;28;20033;-82
2023/12/24 01:20:17;;;;;;;4.53;1.40;;;;;;;-145.18;100.00;46699.47;5052014;28;20059;-82
2023/12/24 01:22:43;;;;;;;8.03;1.83;;;;;;;-145.18;100.00;46679.94;5051876;28;20036;-82
2023/12/24 01:25:09;;;;;;;14.47;2.50;;;;;;;-145.18;100.00;46687.75;5052253;28;20389;-81
2023/12/24 01:27:35;;;;;;;7.97;1.43;;;;;;;-145.18;100.00;46695.56;5051241;28;20048;-81
2023/12/24 01:30:01;;;;;;;5.40;1.60;;;;;;;-145.18;100.00;46683.84;5051888;28;20029;-80
2023/12/24 01:32:26;;;;;;;7.37;1.60;;;;;;;-145.18;100.00;46689.69;5049621;28;20032;-81
2023/12/24 01:34:51;;;;;;;7.80;2.10;;;;;;;-145.18;100.00;46683.84;5050059;28;20063;-82
2023/12/24 01:37:17;;;;;;;11.03;1.80;;;;;;;-145.18;100.00;46677.97;5047906;28;20022;-81
2023/12/24 01:39:42;;;;;;;6.47;1.37;;;;;;;-145.18;100.00;46672.13;5050100;28;20056;-80
2023/12/24 01:42:08;;;;;;;10.20;1.93;;;;;;;-145.18;100.00;46670.16;5050006;28;20036;-80
2023/12/24 01:44:33;;;;;;;16.07;4.17;;;;;;;-145.18;100.00;46672.13;5050353;28;20029;-79
2023/12/24 01:46:59;;;;;;;14.73;1.73;;;;;;;-145.18;100.00;46670.16;5049298;28;20462;-81
2023/12/24 01:49:25;;;;;;;9.00;1.80;;;;;;;-145.18;100.00;46670.16;5050753;28;20043;-80
2023/12/24 01:51:51;;;;;;;16.23;3.23;;;;;;;-145.18;100.00;46670.16;5055010;28;20036;-81
2023/12/24 01:54:17;;;;;;;7.43;2.70;;;;;;;-145.18;100.00;46668.22;5055488;28;20385;-81
2023/12/24 01:56:43;;;;;;;11.70;3.37;;;;;;;-145.18;100.00;46658.44;5053524;28;20037;-80
2023/12/24 01:59:09;;;;;;;10.27;2.90;;;;;;;-145.18;100.00;46664.31;5053146;28;20114;-81
2023/12/24 02:01:35;;;;;;;15.03;3.33;;;;;;;-145.18;100.00;46658.44;5052697;28;20024;-80
2023/12/24 02:04:01;;;;;;;10.90;3.13;;;;;;;-145.18;100.00;46660.41;5054496;28;20388;-80
2023/12/24 02:06:27;;;;;;;12.03;2.50;;;;;;;-145.18;100.00;46656.50;5049489;28;20054;-80
2023/12/24 02:08:55;;;;;;;11.73;2.40;;;;;;;-145.18;100.00;46666.25;5044075;28;20490;-82
2023/12/24 02:11:21;;;;;;;9.27;2.30;;;;;;;-145.18;100.00;46656.50;5039479;28;20033;-80
2023/12/24 02:13:47;;;;;;;10.13;2.37;;;;;;;-145.18;100.00;46656.50;5044752;28;20024;-80
2023/12/24 02:16:17;;;;;;;12.40;3.83;;;;;;;-145.18;100.00;46648.69;5047410;28;20091;-81
2023/12/24 02:18:43;;;;;;;8.40;3.13;;;;;;;-145.18;100.00;46650.63;5048902;28;20036;-80
2023/12/24 02:21:08;;;;;;;14.30;2.60;;;;;;;-145.18;100.00;46644.78;5052890;28;20272;-80
2023/12/24 02:23:34;;;;;;;14.47;3.33;;;;;;;-145.18;100.00;46650.63;5044756;28;20041;-80
2023/12/24 02:26:11;;;;;;;13.60;3.23;;;;;;;-145.18;100.00;46642.81;5039186;28;20030;-80
2023/12/24 02:28:42;;;;;;;13.53;3.57;;;;;;;-145.18;100.00;46650.63;5042884;28;20033;-81
2023/12/24 02:31:11;;;;;;;9.73;2.93;;;;;;;-145.18;100.00;46648.69;5047458;28;20639;-80
2023/12/24 02:33:42;;;;;;;15.43;2.63;;;;;;;-145.18;100.00;46642.81;5042354;28;20045;-80
2023/12/24 02:36:09;;;;;;;8.13;3.40;;;;;;;-145.18;100.00;46644.78;5042648;28;20321;-81
2023/12/24 02:38:35;;;;;;;14.40;2.80;;;;;;;-145.18;100.00;46636.94;5041767;28;20392;-80
2023/12/24 02:41:01;;;;;;;12.97;2.90;;;;;;;-145.18;100.00;46635.00;5050325;28;20112;-80
2023/12/24 02:43:26;;;;;;;8.50;2.53;;;;;;;-145.18;100.00;46636.94;5054741;28;20039;-80
2023/12/24 02:45:52;;;;;;;5.17;2.70;;;;;;;-145.18;100.00;46642.81;5039465;28;20122;-81
2023/12/24 02:48:17;;;;;;;11.93;3.47;;;;;;;-145.18;100.00;46638.91;5047678;28;20021;-83
2023/12/24 02:50:44;;;;;;;8.87;2.70;;;;;;;-145.18;100.00;46640.88;5046128;28;20105;-82
2023/12/24 02:53:09;;;;;;;6.83;2.80;;;;;;;-145.18;100.00;46638.91;5049295;28;20375;-83
2023/12/24 02:55:34;;;;;;;3.93;2.60;;;;;;;-145.18;100.00;46640.88;5051970;28;20263;-83
2023/12/24 02:58:00;;;;;;;9.40;2.70;;;;;;;-145.18;100.00;46636.94;5040248;28;20044;-81
2023/12/24 03:00:25;;;;;;;7.20;2.70;;;;;;;-145.18;100.00;46660.41;5050209;28;20776;-84
2023/12/24 03:02:51;;;;;;;3.33;2.27;;;;;;;-145.18;100.00;46636.94;5041940;28;20044;-83
2023/12/24 03:05:16;;;;;;;5.03;2.87;;;;;;;-145.18;100.00;46633.06;5050909;28;20041;-83
2023/12/24 03:07:42;;;;;;;9.43;3.03;;;;;;;-145.18;100.00;46635.00;5036397;28;20033;-81
2023/12/24 03:10:07;;;;;;;7.07;3.80;;;;;;;-145.18;100.00;46660.41;5036213;28;20451;-83
2023/12/24 03:12:32;;;;;;;4.03;2.40;;;;;;;-145.18;100.00;46660.41;5052237;28;20033;-82
2023/12/24 03:14:58;;;;;;;5.70;2.97;;;;;;;-145.18;100.00;46633.06;5044728;28;20068;-83
2023/12/24 03:17:23;;;;;;;4.70;2.83;;;;;;;-145.18;100.00;46635.00;5041162;28;20029;-81
2023/12/24 03:19:49;;;;;;;6.80;3.07;;;;;;;-145.18;100.00;46660.41;5041330;28;20029;-82
2023/12/24 03:22:14;;;;;;;5.30;2.80;;;;;;;-145.18;100.00;46660.41;5054011;28;20098;-83
2023/12/24 03:24:39;;;;;;;8.03;2.60;;;;;;;-145.18;100.00;46660.41;5054416;28;20024;-83
2023/12/24 03:27:05;;;;;;;6.27;2.53;;;;;;;-145.18;100.00;46660.41;5053585;28;20447;-83
2023/12/24 03:29:30;;;;;;;4.47;2.13;;;;;;;-145.18;100.00;46660.41;5052604;28;20033;-83
2023/12/24 03:31:55;;;;;;;6.40;1.67;;;;;;;-145.18;100.00;46660.41;5053813;28;20036;-82
2023/12/24 03:34:21;;;;;;;2.73;1.50;;;;;;;-145.18;100.00;46660.41;5053284;28;20460;-83
2023/12/24 03:36:46;;;;;;;5.27;1.60;;;;;;;-145.18;100.00;46660.41;5048965;28;20021;-83
2023/12/24 03:39:12;;;;;;;2.17;1.30;;;;;;;-145.18;100.00;46633.06;5046702;28;20087;-83
2023/12/24 03:41:37;;;;;;;2.30;1.40;;;;;;;-145.18;100.00;46660.41;5047158;28;20048;-83
2023/12/24 03:44:03;;;;;;;2.77;1.87;;;;;;;-145.18;100.00;46660.41;5054232;28;20493;-83
2023/12/24 03:46:29;;;;;;;5.00;1.73;;;;;;;-145.18;100.00;46660.41;5043850;28;20021;-83
2023/12/24 03:48:54;;;;;;;7.10;1.80;;;;;;;-145.18;100.00;46660.41;5051410;28;20037;-83
2023/12/24 03:51:20;;;;;;;2.97;1.87;;;;;;;-145.18;100.00;46660.41;5053254;28;20033;-83
2023/12/24 03:53:45;;;;;;;2.40;1.50;;;;;;;-145.18;100.00;46660.41;5048132;28;20021;-83
2023/12/24 03:56:11;;;;;;;2.80;1.43;;;;;;;-145.18;100.00;46660.41;5044706;28;20471;-80
2023/12/24 03:58:37;;;;;;;4.63;1.80;;;;;;;-145.18;100.00;46660.41;5046604;28;20509;-80
2023/12/24 04:01:09;;;;;;;4.50;1.33;;;;;;;-145.18;100.00;46660.41;5048718;28;20163;-80
2023/12/24 04:03:35;;;;;;;5.90;1.40;;;;;;;-145.18;100.00;46660.41;5053850;28;20055;-80
2023/12/24 04:06:01;;;;;;;6.73;1.53;;;;;;;-145.18;100.00;46660.41;5049185;28;20060;-80
2023/12/24 04:08:27;;;;;;;2.93;1.03;;;;;;;-145.18;100.00;46660.41;5048094;28;20033;-80
2023/12/24 04:10:52;;;;;;;2.97;1.00;;;;;;;-145.18;100.00;46660.41;5047555;28;20473;-80
2023/12/24 04:13:18;;;;;;;4.87;1.57;;;;;;;-145.18;100.00;46660.41;5052410;28;20052;-79
2023/12/24 04:15:43;;;;;;;5.97;1.33;;;;;;;-145.18;100.00;46660.41;5049903;28;20069;-80
2023/12/24 04:18:08;;;;;;;3.40;1.53;;;;;;;-145.18;100.00;46660.41;5046778;28;20398;-80
2023/12/24 04:20:34;;;;;;;3.10;1.13;;;;;;;-145.18;100.00;46660.41;5046000;28;20388;-80
2023/12/24 04:22:59;;;;;;;6.10;1.60;;;;;;;-145.18;100.00;46660.41;5050961;28;20083;-81
2023/12/24 04:25:24;;;;;;;6.93;0.97;;;;;;;-145.18;100.00;46660.41;5046705;28;20037;-80
2023/12/24 04:27:50;;;;;;;7.50;1.40;;;;;;;-145.18;100.00;46660.41;5051277;28;20062;-80
2023/12/24 04:30:15;;;;;;;6.07;1.10;;;;;;;-145.18;100.00;46660.41;5048624;28;20124;-81
2023/12/24 04:32:40;;;;;;;13.10;1.67;;;;;;;-145.18;100.00;46660.41;5047105;28;20040;-80
2023/12/24 04:35:06;;;;;;;11.83;1.30;;;;;;;-145.18;100.00;46660.41;5047143;28;20378;-80
2023/12/24 04:37:32;;;;;;;4.40;1.80;;;;;;;-145.18;100.00;46660.41;5046882;28;20025;-81
2023/12/24 04:39:57;;;;;;;11.77;1.77;;;;;;;-145.18;100.00;46660.41;5050557;28;20045;-80
2023/12/24 04:42:23;;;;;;;10.20;1.13;;;;;;;-145.18;100.00;46660.41;5044335;28;20056;-80
2023/12/24 04:44:49;;;;;;;13.90;1.10;;;;;;;-145.18;100.00;46660.41;5046301;28;20060;-80
2023/12/24 04:47:15;;;;;;;8.67;1.40;;;;;;;-145.18;100.00;46660.41;5048629;28;20051;-80
2023/12/24 04:49:40;;;;;;;9.03;1.73;;;;;;;-145.18;100.00;46658.44;5046317;28;20029;-80
2023/12/24 04:52:05;;;;;;;9.10;1.50;;;;;;;-145.18;100.00;46656.50;5045596;28;20029;-79
2023/12/24 04:54:31;;;;;;;13.03;2.40;;;;;;;-145.18;100.00;46660.41;5047633;28;20036;-81
2023/12/24 04:56:58;;;;;;;12.10;1.50;;;;;;;-145.18;100.00;46660.41;5045611;28;20025;-81
2023/12/24 04:59:23;;;;;;;11.43;1.93;;;;;;;-145.18;100.00;46656.50;5051256;28;20119;-80
2023/12/24 05:01:49;;;;;;;13.47;1.80;;;;;;;-145.18;100.00;46660.41;5051878;28;20171;-80
2023/12/24 05:04:15;;;;;;;13.60;1.70;;;;;;;-145.18;100.00;46658.44;5037914;28;20044;-80
2023/12/24 05:06:40;;;;;;;17.23;2.73;;;;;;;-145.18;100.00;46658.44;5050150;28;20049;-82
2023/12/24 05:09:05;;;;;;;15.27;2.23;;;;;;;-145.18;100.00;46656.50;5039376;28;20381;-83
2023/12/24 05:11:31;;;;;;;10.17;2.07;;;;;;;-145.18;100.00;46658.44;5048588;28;20464;-83
2023/12/24 05:13:56;;;;;;;20.27;3.17;;;;;;;-145.18;100.00;46660.41;5050692;28;20044;-82
2023/12/24 05:16:21;;;;;;;19.10;3.00;;;;;;;-145.18;100.00;46654.53;5046103;28;20064;-83
2023/12/24 05:18:47;;;;;;;12.60;2.27;;;;;;;-145.18;100.00;46658.44;5033534;28;20045;-83
2023/12/24 05:21:13;;;;;;;23.67;3.13;;;;;;;-145.18;100.00;46652.59;5041227;28;20037;-83
2023/12/24 05:23:38;;;;;;;24.10;3.03;;;;;;;-145.18;100.00;46658.44;5037977;28;20041;-83
2023/12/24 05:26:04;;;;;;;21.87;4.37;;;;;;;-145.18;100.00;46656.50;5050865;28;20025;-83
2023/12/24 05:28:29;;;;;;;18.20;3.00;;;;;;;-145.18;100.00;46656.50;5050109;28;20108;-83
2023/12/24 05:30:54;;;;;;;15.77;2.40;;;;;;;-145.18;100.00;46650.63;5049417;28;20017;-83
2023/12/24 05:33:20;;;;;;;15.97;2.30;;;;;;;-145.18;100.00;46654.53;5048281;28;20083;-83
2023/12/24 05:35:45;;;;;;;17.83;2.57;;;;;;;-145.18;100.00;46654.53;5052329;28;20382;-83
2023/12/24 05:38:11;;;;;;;16.30;2.30;;;;;;;-145.18;100.00;46650.63;5047414;28;20047;-83
2023/12/24 05:40:36;;;;;;;17.93;2.77;;;;;;;-145.18;100.00;46658.44;5051849;28;20102;-83
2023/12/24 05:43:02;;;;;;;15.73;2.10;;;;;;;-145.18;100.00;46656.50;5026233;28;20485;-83
2023/12/24 05:45:27;;;;;;;20.47;2.60;;;;;;;-145.18;100.00;46656.50;5051448;28;20047;-83
2023/12/24 05:47:52;;;;;;;20.07;2.77;;;;;;;-145.18;100.00;46656.50;5050237;28;20033;-84
2023/12/24 05:50:18;;;;;;;13.73;2.40;;;;;;;-145.18;100.00;46658.44;5044258;28;20069;-83
2023/12/24 05:52:43;;;;;;;10.90;2.03;;;;;;;-145.18;100.00;46656.50;5044854;28;20029;-83
2023/12/24 05:55:10;;;;;;;13.97;2.37;;;;;;;-145.18;100.00;46654.53;5041574;28;20485;-84
2023/12/24 05:57:35;;;;;;;19.27;2.17;;;;;;;-145.18;100.00;46656.50;5037702;28;20033;-83
2023/12/24 06:00:03;;;;;;;19.47;4.10;;;;;;;-145.18;100.00;46656.50;5051860;28;20029;-84
2023/12/24 06:02:28;;;;;;;13.70;3.80;;;;;;;-145.18;100.00;46656.50;5037726;28;20034;-83
2023/12/24 06:04:53;;;;;;;15.67;3.73;;;;;;;-145.18;100.00;46656.50;5041896;28;20029;-84
2023/12/24 06:07:19;;;;;;;11.93;2.97;;;;;;;-145.18;100.00;46656.50;5039749;28;20017;-83
2023/12/24 06:09:44;;;;;;;13.37;3.90;;;;;;;-145.18;100.00;46656.50;5049574;28;20052;-84
2023/12/24 06:12:09;;;;;;;9.27;2.93;;;;;;;-145.18;100.00;46652.59;5048071;28;20398;-85
2023/12/24 06:14:35;;;;;;;26.27;4.93;;;;;;;-145.18;100.00;46656.50;5038823;28;20038;-83
2023/12/24 06:17:00;;;;;;;15.93;3.57;;;;;;;-145.18;100.00;46654.53;5036754;28;20029;-80
2023/12/24 06:19:26;;;;;;;18.17;3.23;;;;;;;-145.18;100.00;46652.59;5049076;28;20393;-80
2023/12/24 06:21:52;;;;;;;13.03;1.93;;;;;;;-145.18;100.00;46658.44;5045268;28;20034;-81
2023/12/24 06:24:20;;;;;;;21.17;2.43;;;;;;;-145.18;100.00;46652.59;5051580;28;20480;-81
2023/12/24 06:26:48;;;;;;;15.37;2.90;;;;;;;-145.18;100.00;46652.59;5047891;28;20049;-83
2023/12/24 06:29:13;;;;;;;14.70;2.50;;;;;;;-145.18;100.00;46656.50;5050986;28;20426;-82
2023/12/24 06:31:39;;;;;;;24.87;2.40;;;;;;;-145.18;100.00;46650.63;5045302;28;20028;-83
2023/12/24 06:34:04;;;;;;;20.23;3.93;;;;;;;-145.18;100.00;46652.59;5048422;28;20101;-83
2023/12/24 06:36:29;;;;;;;16.17;4.40;;;;;;;-145.18;100.00;46656.50;5047663;28;20037;-82
2023/12/24 06:38:55;;;;;;;20.40;2.63;;;;;;;-145.18;100.00;46654.53;5055039;28;20423;-82
2023/12/24 06:41:21;;;;;;;13.57;3.00;;;;;;;-145.18;100.00;46656.50;5052631;28;20065;-83
2023/12/24 06:43:47;;;;;;;24.07;3.00;;;;;;;-145.18;100.00;46654.53;5055048;28;20025;-82
2023/12/24 06:46:12;;;;;;;21.57;4.17;;;;;;;-145.18;100.00;46652.59;5052364;28;20047;-83
2023/12/24 06:48:41;;;;;;;18.27;3.27;;;;;;;-145.18;100.00;46652.59;5036712;28;20041;-82
2023/12/24 06:51:07;;;;;;;15.67;2.70;;;;;;;-145.18;100.00;46652.59;5036365;28;20449;-82
2023/12/24 06:53:33;;;;;;;24.53;3.40;;;;;;;-145.18;100.00;46652.59;5051903;28;20029;-81
2023/12/24 06:55:59;;;;;;;24.37;2.73;;;;;;;-145.18;100.00;46654.53;5047118;28;20071;-81
2023/12/24 06:58:24;;;;;;;27.30;3.97;;;;;;;-145.18;100.00;46652.59;5042732;28;20620;-82
2023/12/24 07:00:49;;;;;;;17.63;3.37;;;;;;;-145.18;100.00;46648.69;5054228;28;20033;-81
2023/12/24 07:03:15;;;;;;;17.77;3.27;;;;;;;-145.18;100.00;46640.88;5049625;28;20095;-81
2023/12/24 07:05:41;;;;;;;24.30;2.97;;;;;;;-145.18;100.00;46642.81;5044463;28;20413;-81
2023/12/24 07:08:07;;;;;;;29.60;4.07;;;;;;;-145.18;100.00;46648.69;5044992;28;20037;-82
2023/12/24 07:10:33;;;;;;;21.37;4.77;;;;;;;-145.18;100.00;46648.69;5037202;28;20036;-82
2023/12/24 07:12:59;;;;;;;18.77;3.63;;;;;;;-145.18;100.00;46650.63;5041468;28;20038;-82
2023/12/24 07:15:24;;;;;;;19.50;3.27;;;;;;;-145.18;100.00;46650.63;5041292;28;20056;-82
2023/12/24 07:17:50;;;;;;;18.40;3.13;;;;;;;-145.18;100.00;46654.53;5041306;28;20052;-82
2023/12/24 07:20:15;;;;;;;22.87;3.57;;;;;;;-145.18;100.00;46652.59;5062653;28;20037;-82
2023/12/24 07:22:41;;;;;;;24.30;4.67;;;;;;;-145.18;100.00;46640.88;5045657;28;20056;-81
2023/12/24 07:25:07;;;;;;;20.60;3.13;;;;;;;-145.18;100.00;46648.69;5051701;28;20086;-80
2023/12/24 07:27:32;;;;;;;21.70;3.50;;;;;;;-145.18;100.00;46652.59;5047939;28;20478;-94
2023/12/24 07:29:57;;;;;;;22.20;3.00;;;;;;;-145.18;100.00;46640.88;5046122;28;20474;-90
2023/12/24 07:32:23;;;;;;;15.30;2.60;;;;;;;-145.18;100.00;46615.47;5053712;28;20075;-90
2023/12/24 07:34:48;;;;;;;14.87;2.70;;;;;;;-145.18;100.00;46609.59;5055230;28;20086;-87
2023/12/24 07:37:14;;;;;;;16.83;2.50;;;;;;;-145.18;100.00;46609.59;5049900;28;20033;-88
2023/12/24 07:39:40;;;;;;;12.80;2.33;;;;;;;-145.18;100.00;46640.88;5045367;28;20040;-88
2023/12/24 07:42:05;;;;;;;11.03;2.47;;;;;;;-145.18;100.00;46640.88;5049201;28;20025;-85
2023/12/24 07:44:31;;;;;;;13.53;1.80;;;;;;;-145.18;100.00;46636.94;5047632;28;20474;-86
2023/12/24 07:46:56;;;;;;;12.63;2.13;;;;;;;-145.18;100.00;46638.91;5048155;28;20036;-89
2023/12/24 07:49:21;;;;;;;8.30;1.40;;;;;;;-145.18;100.00;46638.91;5049606;28;20113;-91
2023/12/24 07:51:48;;;;;;;14.20;1.80;;;;;;;-145.18;100.00;46636.94;5067292;28;20029;-91
2023/12/24 07:54:13;;;;;;;4.50;1.90;;;;;;;-145.18;100.00;46648.69;5055473;28;20132;-93
2023/12/24 07:56:39;;;;;;;11.63;2.97;;;;;;;-145.18;100.00;46640.88;5054981;28;20470;-88
2023/12/24 07:59:04;;;;;;;13.83;5.03;;;;;;;-145.18;100.00;46648.69;5019772;28;20037;-89
2023/12/24 08:01:29;;;;;;;12.03;4.00;;;;;;;-145.18;100.00;46638.91;5052936;28;20119;-85
2023/12/24 08:03:55;;;;;;;8.70;1.93;;;;;;;-145.18;100.00;46633.06;5054420;28;20496;-91
2023/12/24 08:06:21;;;;;;;10.27;1.67;;;;;;;-145.18;100.00;46640.88;5050778;28;20058;-91
2023/12/24 08:08:47;;;;;;;12.13;3.73;;;;;;;-145.18;100.00;46636.94;5045446;28;20044;-91
2023/12/24 08:11:12;;;;;;;8.53;1.67;;;;;;;-145.18;100.00;46636.94;5053431;28;20039;-91
2023/12/24 08:13:38;;;;;;;10.50;2.80;;;;;;;-145.18;100.00;46636.94;5033918;28;20037;-88
2023/12/24 08:16:03;;;;;;;17.90;2.63;;;;;;;-145.18;100.00;46636.94;5052078;28;20048;-90
2023/12/24 08:18:28;;;;;;;25.23;3.83;;;;;;;-145.18;100.00;46638.91;5036320;28;20139;-83
2023/12/24 08:20:54;;;;;;;18.20;3.10;;;;;;;-145.18;100.00;46638.91;5039889;28;20033;-87
2023/12/24 08:23:20;;;;;;;22.13;3.17;;;;;;;-145.18;100.00;46640.88;5035347;28;20032;-84
2023/12/24 08:25:45;;;;;;;28.70;3.83;;;;;;;-145.18;100.00;46640.88;5039547;28;20036;-83
2023/12/24 08:28:10;;;;;;;22.40;4.43;;;;;;;-145.18;100.00;46640.88;5047113;28;20470;-83
2023/12/24 08:30:36;;;;;;;24.67;3.33;;;;;;;-145.18;100.00;46640.88;5061751;28;20112;-82
2023/12/24 08:33:01;;;;;;;26.07;4.83;;;;;;;-145.18;100.00;46650.63;5043421;28;20097;-83
2023/12/24 08:35:27;;;;;;;31.23;4.33;;;;;;;-145.18;100.00;46636.94;5067348;28;20043;-89
2023/12/24 08:37:52;;;;;;;30.83;5.33;;;;;;;-145.18;100.00;46638.91;5033673;28;20477;-80
2023/12/24 08:40:17;;;;;;;33.70;4.37;;;;;;;-145.18;100.00;46635.00;5061759;28;20116;-82
2023/12/24 08:42:43;;;;;;;28.73;5.17;;;;;;;-145.18;100.00;46640.88;5048503;28;20039;-82
2023/12/24 08:45:08;;;;;;;38.93;4.93;;;;;;;-145.18;100.00;46638.91;5053108;28;20048;-83
2023/12/24 08:47:34;;;;;;;35.57;4.70;;;;;;;-145.18;100.00;46605.69;5035263;28;20043;-82
2023/12/24 08:49:59;;;;;;;30.87;4.30;;;;;;;-145.18;100.00;46969.03;5030857;28;20033;-82
2023/12/24 08:52:25;;;;;;;38.40;5.40;;;;;;;-145.18;100.00;46972.94;5033884;28;20029;-80
2023/12/24 08:54:50;;;;;;;33.50;6.30;;;;;;;-145.18;100.00;46980.75;5053794;28;20037;-80
2023/12/24 08:57:16;;;;;;;40.27;5.50;;;;;;;-145.18;100.00;46982.72;5033419;28;20029;-80
2023/12/24 08:59:42;;;;;;;37.43;5.83;;;;;;;-145.18;100.00;46984.66;5032118;28;20113;-80
2023/12/24 09:02:07;;;;;;;40.17;6.23;;;;;;;-145.18;100.00;46990.53;5039261;28;20389;-80
2023/12/24 09:04:32;;;;;;;38.90;4.63;;;;;;;-145.18;100.00;46990.53;5040357;28;20420;-81
2023/12/24 09:06:58;;;;;;;41.97;4.97;;;;;;;-145.18;100.00;46996.38;5040719;28;20060;-81
2023/12/24 09:09:23;;;;;;;43.07;5.40;;;;;;;-145.18;100.00;46998.34;5042844;28;20048;-81
2023/12/24 09:11:50;;;;;;;52.90;6.57;;;;;;;-145.18;100.00;47012.00;5045897;28;20529;-81
2023/12/24 09:14:15;;;;;;;39.77;5.40;;;;;;;-145.18;100.00;47010.06;5047685;28;20512;-81
2023/12/24 09:16:41;;;;;;;38.97;7.00;;;;;;;-145.18;100.00;47010.06;5033103;28;20040;-81
2023/12/24 09:19:06;;;;;;;53.57;6.67;;;;;;;-145.18;100.00;47004.19;5048225;28;20059;-82
2023/12/24 09:21:31;;;;;;;44.60;6.73;;;;;;;-145.18;100.00;47019.81;5049273;28;20041;-81
2023/12/24 09:23:58;;;;;;;47.13;6.57;;;;;;;-145.18;100.00;47017.88;5046281;28;20029;-81
2023/12/24 09:26:24;;;;;;;37.57;6.40;;;;;;;-145.18;100.00;47019.81;5046449;28;20061;-83
2023/12/24 09:28:49;;;;;;;36.03;4.93;;;;;;;-145.18;100.00;47019.81;5042202;28;20060;-81
2023/12/24 09:31:15;;;;;;;41.13;5.43;;;;;;;-145.18;100.00;47023.72;5046950;28;20474;-81
2023/12/24 09:33:40;;;;;;;42.77;6.67;;;;;;;-145.18;100.00;47021.78;5042487;28;20031;-81
2023/12/24 09:36:07;;;;;;;52.63;7.50;;;;;;;-145.18;100.00;47025.69;5042201;28;20065;-86
2023/12/24 09:38:33;;;;;;;34.33;5.93;;;;;;;-145.18;100.00;47023.72;5042385;28;20032;-82
2023/12/24 09:40:59;;;;;;;51.87;6.20;;;;;;;-145.18;100.00;47023.72;5044907;28;20070;-82
2023/12/24 09:43:28;;;;;;;34.20;6.93;;;;;;;-145.18;100.00;47027.63;5040747;28;20478;-82
2023/12/24 09:45:53;;;;;;;47.87;5.70;;;;;;;-145.18;100.00;47021.78;5040033;28;20537;-83
2023/12/24 09:48:18;;;;;;;42.00;4.97;;;;;;;-145.18;100.00;47021.78;5043462;28;20033;-92
2023/12/24 09:50:44;;;;;;;50.17;6.57;;;;;;;-145.18;100.00;47015.91;5035804;28;20029;-92
2023/12/24 09:53:10;;;;;;;32.97;5.87;;;;;;;-145.18;100.00;47013.97;5065643;28;20397;-91
2023/12/24 09:55:35;;;;;;;42.20;5.57;;;;;;;-145.18;100.00;47012.00;5053229;28;20033;-89
2023/12/24 09:58:00;;;;;;;41.80;6.37;;;;;;;-145.18;100.00;46998.34;5052169;28;20064;-88
2023/12/24 10:00:26;;;;;;;40.30;5.80;;;;;;;-145.18;100.00;47013.97;5051732;28;20527;-92
2023/12/24 10:02:52;;;;;;;42.73;5.57;;;;;;;-145.18;100.00;47017.88;5053699;28;20116;-91
2023/12/24 10:05:17;;;;;;;35.73;5.83;;;;;;;-145.18;100.00;47017.88;5051924;28;20049;-88
2023/12/24 10:07:45;;;;;;;39.63;5.40;;;;;;;-145.18;100.00;47017.88;5044017;28;20063;-91
2023/12/24 10:10:13;;;;;;;32.83;5.60;;;;;;;-145.18;100.00;47017.88;5053606;28;20489;-93
2023/12/24 10:12:39;;;;;;;28.53;4.13;;;;;;;-145.18;100.00;47023.72;5057315;28;20377;-93
2023/12/24 10:15:04;;;;;;;32.17;6.20;;;;;;;-145.18;100.00;47023.72;5057671;28;20029;-91
2023/12/24 10:17:32;;;;;;;36.00;5.97;;;;;;;-145.18;100.00;47025.69;5057858;28;20547;-92
2023/12/24 10:19:59;;;;;;;27.00;4.17;;;;;;;-145.18;100.00;47025.69;5057409;28;20041;-89
2023/12/24 10:22:26;;;;;;;25.93;4.27;;;;;;;-145.18;100.00;47023.72;5051290;28;20022;-90
2023/12/24 10:25:02;;;;;;;30.87;4.70;;;;;;;-145.18;100.00;47019.81;5056148;28;20021;-90
2023/12/24 10:27:28;;;;;;;37.30;7.70;;;;;;;-145.18;100.00;47021.78;5048942;28;20037;-87
2023/12/24 10:29:55;;;;;;;25.03;3.57;;;;;;;-145.18;100.00;47023.72;5056719;28;20533;-90
2023/12/24 10:32:24;;;;;;;27.87;4.93;;;;;;;-145.18;100.00;47029.59;5045392;28;20033;-89
2023/12/24 10:34:59;;;;;;;27.90;3.80;;;;;;;-145.18;100.00;47023.72;5043804;28;20070;-90
2023/12/24 10:37:29;;;;;;;32.92;5.70;;;;;;;-145.18;100.00;47025.69;5037984;28;20374;-88
2023/12/24 10:40:10;;;;;;;27.43;4.07;;;;;;;-145.18;100.00;47021.78;5047375;28;20034;-89
2023/12/24 10:42:38;;;;;;;20.43;4.13;;;;;;;-145.18;100.00;47023.72;5052671;28;20025;-90
2023/12/24 10:45:04;;;;;;;19.50;3.43;;;;;;;-145.18;100.00;47027.63;5057904;28;20139;-91
2023/12/24 10:47:30;;;;;;;19.50;3.13;;;;;;;-145.18;100.00;47023.72;5038745;28;20025;-91
2023/12/24 10:49:55;;;;;;;19.83;3.57;;;;;;;-145.18;100.00;47023.72;5054671;28;20029;-89
2023/12/24 10:52:21;;;;;;;16.47;2.93;;;;;;;-145.18;100.00;47025.69;5054494;28;20029;-90
2023/12/24 10:54:47;;;;;;;19.33;2.40;;;;;;;-145.18;100.00;47025.69;5034428;28;20537;-90
2023/12/24 10:57:23;;;;;;;23.03;4.10;;;;;;;-145.18;100.00;47027.63;5049584;28;20121;-87